Kuwait, Kuwait

9:16 PM AST on August 30, 2014 (GMT +0300)
Kuwait International | Change Station
CLOSE
Current Station
Airport
Location: Kuwait,
Elevation: 180 ft
Nearby Weather Stations

Elev 180 ft 29.22 °N, 47.98 °E | Updated 1 hour ago

Clear
Clear
95 °F
Feels Like 116 °F
N
7
Wind Variable Wind from SSE

Today
High -- | Low -- °F
--% Chance of Precip.
Yesterday
High -- | Low -- °F
Precip. -- in
5:24 AM 6:12 PM
Waxing Crescent, 23% visible
Pressure 29.56 in
Visibility 4.3 miles
Clouds Clear
Heat Index 116 °F
Dew Point 81 °F
Humidity 63%
Rainfall 0.00 in
Snow Depth Not available.
UV 0 out of 12
Pollen Not available.
Air Quality Not available.
Flu Activity Not available.
METAR OKBK 301700Z 15006KT 7000 SKC 35/27 Q1001 NOSIG

More Conditions Fewer Conditions

Pressure 29.56 in
Visibility 4.3 miles
Clouds Clear
Heat Index 116 °F
Dew Point 81 °F
Humidity 63%
Rainfall 0.00 in
Snow Depth Not available.
UV 0 out of 12
Pollen Not available.
Air Quality Not available.
Flu Activity Not available.
METAR OKBK 301700Z 15006KT 7000 SKC 35/27 Q1001 NOSIG

More Conditions Fewer Conditions

10-Day Weather Forecast

Almanac

Astronomy

Aug. 30, 2014 Rise Set
Actual Time 5:24 AM AST 6:12 PM AST
Civil Twilight 5:00 AM AST 6:36 PM AST
Nautical Twilight 4:31 AM AST 7:05 PM AST
Astronomical Twilight 4:02 AM AST 7:34 PM AST
Moon 9:26 AM AST 8:57 PM AST
Length of Visible Light 13h 36m
Length of Day
12h 48m
Tomorrow will be 1m 40s shorter.
Waxing Crescent, 23% of the Moon is Illuminated
Today
Waxing Crescent
Sep 2
First Quarter
Sep 8
Full
Sep 15
Last Quarter
Sep 24
New

Today's Extremes

Country Highs Country Lows

Community

WunderPhotos

Upload Photos

1,748,583 photos uploaded!

WunderBlogs® & News

Nearby

Snow Depth

Not available.

Earthquake Activity

City Distance Mag. Time & Date
No recent earthquake activity has been reported nearby.
Minimum magnitude displayed is 2.5.

Coastal Water Temperatures

Place Temperature
No Stations Reporting

Nearby Weather Stations